D3121 Weather Reports


Display with metric or nautical units.
time (UTC)temp
F
wind
direction
speed
MPH
gust
MPH
rain 1hr
in
rain 24hr
in
rain mn
in
humidity
%
barometer
mb
20240525231040 71 0.0 0.0 0.00 0.00 0.00 55 1010.7
20240525230040 71 0.0 0.0 0.00 0.00 0.00 48 1010.6
20240525225019 71 0.0 0.0 0.00 0.00 0.00 43 1010.6
20240525224019 72 0.0 0.0 0.00 0.00 0.00 43 1010.7
20240525223039 72 0.0 0.0 0.00 0.00 0.00 43 1010.7
20240525222019 72 0.0 0.0 0.00 0.00 0.00 42 1010.6
20240525221019 72 0.0 0.0 0.00 0.00 0.00 41 1010.5
20240525220019 73 0.0 0.0 0.00 0.00 0.00 39 1010.6
20240525215019 73 270 1.0 5.0 0.00 0.00 0.00 37 1010.4
20240525214039 73 0 2.0 4.0 0.00 0.00 0.00 37 1010.4
20240525213019 73 338 3.0 5.0 0.00 0.00 0.00 40 1010.3
20240525212019 73 0 4.0 7.0 0.00 0.00 0.00 40 1010.2
20240525211020 73 338 3.0 8.0 0.00 0.00 0.00 41 1010.2
20240525210039 73 338 2.0 2.0 0.00 0.00 0.00 42 1010.3
20240525205020 73 0 1.0 3.0 0.00 0.00 0.00 40 1010.1
20240525204020 73 338 1.0 3.0 0.00 0.00 0.00 45 1010.1
20240525203019 73 0 1.0 2.0 0.00 0.00 0.00 43 1010.1
20240525202020 73 0 3.0 5.0 0.00 0.00 0.00 44 1010.0
20240525201018 73 225 2.0 3.0 0.00 0.00 0.00 47 1010.1
20240525200040 72 315 1.0 4.0 0.00 0.00 0.00 44 1010.2
20240525195018 72 0.0 0.0 0.00 0.00 0.00 47 1010.1
20240525194020 72 0.0 2.0 0.00 0.00 0.00 46 1010.2
20240525193019 72 0.0 1.0 0.00 0.00 0.00 46 1010.3
20240525192019 71 0 5.0 6.0 0.00 0.00 0.00 45 1010.2
20240525191019 71 0.0 0.0 0.00 0.00 0.00 46 1010.2
20240525190019 71 0 3.0 4.0 0.00 0.00 0.00 44 1010.2
20240525185019 71 338 2.0 3.0 0.00 0.00 0.00 43 1010.2
20240525184019 71 23 2.0 4.0 0.00 0.00 0.00 45 1010.4
20240525183040 70 68 1.0 2.0 0.00 0.00 0.00 45 1010.5
20240525182019 69 0.0 2.0 0.00 0.00 0.00 50 1010.6
20240525181018 68 158 6.0 8.0 0.00 0.00 0.00 54 1010.6
20240525180039 68 135 6.0 8.0 0.00 0.00 0.00 48 1010.7
20240525175040 68 0.0 0.0 0.00 0.00 0.00 46 1010.8
20240525174019 68 0.0 1.0 0.00 0.00 0.00 48 1010.8
20240525173039 67 158 4.0 6.0 0.00 0.00 0.00 49 1010.8
20240525172019 67 158 5.0 6.0 0.00 0.00 0.00 47 1010.8
20240525171018 67 158 2.0 5.0 0.00 0.00 0.00 47 1010.9
20240525170019 67 338 6.0 8.0 0.00 0.00 0.00 46 1011.1
20240525165020 67 0 4.0 5.0 0.00 0.00 0.00 45 1011.3
20240525164020 67 315 2.0 4.0 0.00 0.00 0.00 47 1011.7
20240525163019 66 0 3.0 4.0 0.00 0.00 0.00 45 1011.6
20240525162039 66 0 2.0 5.0 0.00 0.00 0.00 46 1011.8
20240525161039 65 0.0 2.0 0.00 0.00 0.00 48 1011.8
20240525160019 65 0 1.0 4.0 0.00 0.00 0.00 48 1012.0
20240525155018 65 338 3.0 7.0 0.00 0.00 0.00 47 1012.1
20240525154019 64 0 6.0 10.0 0.00 0.00 0.00 49 1012.1
20240525153018 63 0 8.0 10.0 0.00 0.00 0.00 49 1012.1
20240525152018 63 0 2.0 5.0 0.00 0.00 0.00 51 1012.1
20240525151020 63 0 8.0 11.0 0.00 0.00 0.00 53 1012.1
20240525150020 63 158 1.0 4.0 0.00 0.00 0.00 52 1012.2
20240525145040 62 0 1.0 4.0 0.00 0.00 0.00 55 1012.1
20240525144038 62 270 1.0 4.0 0.00 0.00 0.00 53 1012.2
20240525143018 61 0 6.0 9.0 0.00 0.00 0.00 54 1012.2
20240525142017 60 293 1.0 3.0 0.00 0.00 0.00 56 1012.1
20240525141016 60 0 7.0 7.0 0.00 0.00 0.00 54 1012.1
20240525140020 60 0 5.0 7.0 0.00 0.00 0.00 54 1012.2
20240525135018 60 0 4.0 6.0 0.00 0.00 0.00 58 1012.2
20240525134038 60 315 2.0 5.0 0.00 0.00 0.00 55 1012.2
20240525133039 59 338 3.0 4.0 0.00 0.00 0.00 58 1012.2
20240525132018 59 0 9.0 11.0 0.00 0.00 0.00 58 1012.0
20240525131044 58 0 5.0 7.0 0.00 0.00 0.00 60 1012.1
20240525130022 58 338 9.0 11.0 0.00 0.00 0.00 59 1012.0
20240525125022 58 338 3.0 6.0 0.00 0.00 0.00 61 1012.0
20240525124042 58 0 8.0 11.0 0.00 0.00 0.00 63 1012.1
20240525123022 58 0 10.0 12.0 0.00 0.00 0.00 62 1012.2
20240525122042 57 338 1.0 3.0 0.00 0.00 0.00 65 1012.3
20240525121022 57 0 6.0 9.0 0.00 0.00 0.00 65 1012.3
20240525120018 57 315 2.0 3.0 0.00 0.00 0.00 64 1012.3
20240525115023 56 338 5.0 8.0 0.00 0.00 0.00 63 1012.1
20240525114021 56 338 2.0 4.0 0.00 0.00 0.00 67 1012.0
20240525113020 56 0 6.0 10.0 0.00 0.00 0.00 68 1011.8
20240525112020 56 0 3.0 7.0 0.00 0.00 0.00 67 1011.8
20240525111020 56 315 1.0 3.0 0.00 0.00 0.00 68 1011.8
20240525110021 55 0 2.0 4.0 0.00 0.00 0.00 70 1011.7
20240525105020 54 0 4.0 6.0 0.00 0.00 0.00 74 1011.4
20240525104020 53 338 3.0 4.0 0.00 0.00 0.00 77 1011.4
20240525103022 52 0.0 0.0 0.00 0.00 0.00 78 1011.3
20240525102020 51 0 2.0 3.0 0.00 0.00 0.00 80 1011.3
20240525101022 51 0.0 2.0 0.00 0.00 0.00 83 1011.5
20240525100040 50 0.0 1.0 0.00 0.00 0.00 84 1011.4
20240525095020 50 0.0 0.0 0.00 0.00 0.00 82 1011.6
20240525094019 50 0.0 0.0 0.00 0.00 0.00 81 1011.6
20240525093042 50 0.0 0.0 0.00 0.00 0.00 80 1011.6
20240525092022 50 0.0 0.0 0.00 0.00 0.00 81 1011.4
20240525091020 50 0.0 0.0 0.00 0.00 0.00 76 1011.5
20240525090022 51 0.0 0.0 0.00 0.00 0.00 75 1011.4
20240525085020 51 0.0 0.0 0.00 0.00 0.00 79 1011.5
20240525084020 51 0.0 0.0 0.00 0.00 0.00 76 1011.5
20240525083020 51 0.0 0.0 0.00 0.00 0.00 79 1011.5
20240525082040 51 0.0 0.0 0.00 0.00 0.00 79 1011.7
20240525081020 52 0.0 0.0 0.00 0.00 0.00 76 1011.7
20240525080020 52 0.0 0.0 0.00 0.00 0.00 74 1011.5
20240525075020 53 0.0 0.0 0.00 0.00 0.00 72 1011.5
20240525074020 53 0.0 0.0 0.00 0.00 0.00 71 1011.4
20240525073023 54 0.0 0.0 0.00 0.00 0.00 72 1011.6
20240525072020 54 0.0 0.0 0.00 0.00 0.00 69 1011.6
20240525071020 54 0 1.0 2.0 0.00 0.00 0.00 69 1011.7
20240525070020 54 23 5.0 8.0 0.00 0.00 0.00 67 1011.2
20240525065020 54 338 1.0 2.0 0.00 0.00 0.00 68 1011.3
20240525064022 55 0.0 0.0 0.00 0.00 0.00 67 1011.6
20240525063019 55 338 1.0 2.0 0.00 0.00 0.00 68 1011.6
20240525062020 55 0.0 0.0 0.00 0.00 0.00 67 1011.6
20240525061020 55 248 2.0 5.0 0.00 0.00 0.00 67 1011.4
20240525060042 55 293 3.0 6.0 0.00 0.00 0.00 67 1011.5
20240525055040 55 270 2.0 4.0 0.00 0.00 0.00 67 1011.7
20240525054020 55 338 1.0 4.0 0.00 0.00 0.00 69 1011.6
20240525053022 55 293 2.0 4.0 0.00 0.00 0.00 71 1011.5
20240525052020 55 0.0 2.0 0.00 0.00 0.00 69 1011.4
20240525051022 55 0.0 0.0 0.00 0.00 0.00 70 1011.5
20240525050022 55 0.0 1.0 0.00 0.00 0.00 72 1011.8
20240525045021 56 0.0 0.0 0.00 0.00 0.00 71 1011.7
20240525044022 56 0.0 0.0 0.00 0.00 0.00 71 1011.5
20240525043020 56 0.0 0.0 0.00 0.00 0.00 69 1011.3
20240525042020 57 315 2.0 4.0 0.00 0.00 0.00 69 1011.5
20240525041020 57 315 3.0 7.0 0.00 0.00 0.00 68 1011.3
20240525040040 57 0 7.0 9.0 0.00 0.00 0.00 68 1011.3
20240525035021 58 293 4.0 7.0 0.00 0.00 0.00 68 1011.3
20240525034019 58 293 1.0 3.0 0.00 0.00 0.00 68 1010.9
20240525033019 59 315 1.0 3.0 0.00 0.00 0.00 67 1010.7
20240525032021 59 0 3.0 5.0 0.00 0.00 0.00 67 1010.5
20240525031019 59 338 5.0 9.0 0.00 0.00 0.00 65 1010.5
20240525030019 59 0 1.0 2.0 0.00 0.00 0.00 65 1010.3
20240525025020 60 0.0 0.0 0.00 0.00 0.00 64 1010.2
20240525024019 60 315 1.0 2.0 0.00 0.00 0.00 64 1010.1
20240525023019 61 315 1.0 2.0 0.00 0.00 0.00 64 1009.9
20240525022041 61 338 1.0 3.0 0.00 0.00 0.00 64 1009.8
20240525021022 61 338 3.0 5.0 0.00 0.00 0.00 62 1009.8
20240525020019 62 0.0 0.0 0.00 0.00 0.00 62 1010.0
20240525015039 62 0.0 0.0 0.00 0.00 0.00 62 1010.1
20240525014039 62 23 4.0 6.0 0.00 0.00 0.00 61 1010.0
20240525013019 63 0.0 0.0 0.00 0.00 0.00 61 1009.7
20240525012039 63 315 3.0 5.0 0.00 0.00 0.00 59 1009.5
20240525011019 63 338 3.0 4.0 0.00 0.00 0.00 60 1009.2
20240525010021 64 0 5.0 8.0 0.00 0.00 0.00 59 1009.0
20240525005019 64 293 3.0 6.0 0.00 0.00 0.00 59 1008.8
20240525004022 65 0 4.0 7.0 0.00 0.00 0.00 57 1008.5
20240525003019 66 338 3.0 5.0 0.00 0.00 0.00 55 1008.3
20240525002019 66 338 3.0 6.0 0.00 0.00 0.00 54 1008.1
20240525001019 67 0 3.0 9.0 0.00 0.00 0.00 53 1008.0
20240525000021 68 0 4.0 8.0 0.00 0.00 0.00 51 1007.7
20240524235019 69 338 8.0 11.0 0.00 0.00 0.00 53 1007.6
20240524234021 69 0 11.0 14.0 0.00 0.00 0.00 50 1007.4
20240524233021 70 338 9.0 14.0 0.00 0.00 0.00 48 1007.3
20240524232019 71 0 11.0 14.0 0.00 0.00 0.00 48 1007.0